AGROMETEOROLOŠKI PORTAL

vinorodna pokrajina

Temelj dobrega kmetovanja

Pregled podatkov za lokacijo Bizeljsko, meteorološka postaja 863816

Pregled senzorjev na lokaciji

ID Ime Zadnja
vrednost
Datum in čas
meritve
(lokalni čas)
Tip
senzorja
5035 Omočenost lista (1,5 m) (U) 0 U 4.10.2022 15:30 A730WET
5037 Padavine (mm) 0 mm 4.10.2022 15:30 Generic 0.2 mm
5034 Relativna zračna vlaga (2 m) (%RH) 50 %RH 4.10.2022 15:30 50YA
5033 Temperatura (2 m) (°C) 17,8 °C 4.10.2022 15:30 50YA

Pregled podatkov zadnjih 24 ur

Zap.
št.
Datum in čas
(lokalni čas)
Bizeljsko
Omočenost
lista
(1,5
m)
Padavine Relativna
zračna
vlaga
(2
m)
Temperatura
(2
m)
1 4.10.2022 15:30 0 0 50,4 17,8
2 4.10.2022 15:00 0 0 50,7 17,3
3 4.10.2022 14:30 0 0 48 18,2
4 4.10.2022 14:00 0 0 49,5 17,7
5 4.10.2022 13:30 0 0 50,9 17,2
6 4.10.2022 13:00 0 0 56,4 16,6
7 4.10.2022 12:30 0 0 59 16,2
8 4.10.2022 12:00 0 0 62,7 15,4
9 4.10.2022 11:30 0 0 65,4 14,9
10 4.10.2022 11:00 0 0 69,6 14
11 4.10.2022 10:30 0 0 73,8 12,8
12 4.10.2022 10:00 0 0 72,4 13,2
13 4.10.2022 09:30 0 0 72,5 13
14 4.10.2022 09:00 0 0 75,3 11,2
15 4.10.2022 08:30 0 0 67,3 12,4
16 4.10.2022 08:00 0 0 65 12,7
17 4.10.2022 07:30 0 0 74,3 9,3
18 4.10.2022 07:00 0 0 76 8,8
19 4.10.2022 06:30 0 0 78,2 8,6
20 4.10.2022 06:00 0 0 76,9 8,9
21 4.10.2022 05:30 0 0 77,5 9
22 4.10.2022 05:00 0 0 75,9 9,3
23 4.10.2022 04:30 0 0 73,1 9,6
24 4.10.2022 04:00 0 0 69,6 10,4
25 4.10.2022 03:30 0 0 65,7 11,3
26 4.10.2022 03:00 0 0 68,5 11,2
27 4.10.2022 02:30 0 0 69,9 11,2
28 4.10.2022 02:00 0 0 69,2 11,3
29 4.10.2022 01:30 0 0 65,2 11,1
30 4.10.2022 01:00 0 0 63,8 11,1
31 4.10.2022 00:30 0 0 66 11,1
32 4.10.2022 00:00 0 0 66 11,1
33 3.10.2022 23:30 0 0 62,1 11,7
34 3.10.2022 23:00 0 0 61,2 12,1
35 3.10.2022 22:30 0 0 59,8 12,3
36 3.10.2022 22:00 0 0 62,6 12,4
37 3.10.2022 21:30 0 0 57,8 13,3
38 3.10.2022 21:00 0 0 56,4 13,5
39 3.10.2022 20:30 0 0 54,2 13,8
40 3.10.2022 20:00 0 0 59,9 13,3
41 3.10.2022 19:30 0 0 62,7 13,4
42 3.10.2022 19:00 0 0 64,7 13,6
43 3.10.2022 18:30 0 0 63,3 14,2
44 3.10.2022 18:00 0 0 56,6 15,9
45 3.10.2022 17:30 0 0 48,7 18,1
46 3.10.2022 17:00 0 0 48 19,2